Pride Of Rotterdam — PBAJ — position and weather

sailwx.info

Track history (hours):
 
Tides and Currents Weather Stations Pressure Air Temp Water Temp Dewpoint Dewpoint Depression Visibility Wind Speed Wind Dir Waves Ship Positions

Pride Of Rotterdam

Operator: P&O Ferries

Last reported at 2018-Apr-25 02:17 UTC. Time now 2018-Apr-25 02:40 UTC.
Position N 53°21' E 000°57'.

Length 215 m; draft 6 m.

Type: Ship. MMSI: 244980000.

Date/timePositionNaut miles runAvg speedWind from/ knotsBaromVisibWave heightAir tempDewpointWater temp
2018-Apr-25 02:17N 53°21' E 000°57'518.2
2018-Apr-25 02:00N 53°18' E 001°03'918.4
2018-Apr-25 01:30N 53°13' E 001°15'918.7
2018-Apr-25 01:00N 53°08' E 001°29'1019.2
2018-Apr-25 00:30N 53°02' E 001°42'1019.7
2018-Apr-25 00:00N 52°56' E 001°55'1121.1
2018-Apr-24 23:28N 52°48' E 002°08'6220.6
2018-Apr-24 20:26N 52°10' E 003°29'819.4
2018-Apr-24 20:00N 52°06' E 003°41'1019.3
2018-Apr-24 19:30N 52°02' E 003°56'816.8
2018-Apr-24 19:00N 51°58' E 004°07'1 2.9
2018-Apr-24 18:30N 51°57' E 004°08'0 0.0
2018-Apr-24 18:00N 51°57' E 004°08'0 0.0
2018-Apr-24 17:26N 51°57' E 004°08'0 0.0
2018-Apr-24 16:59N 51°57' E 004°08'0 0.0
2018-Apr-24 16:29N 51°57' E 004°08'0 0.0
2018-Apr-24 15:59N 51°57' E 004°08'0 0.0
2018-Apr-24 15:29N 51°57' E 004°08'0 0.0
2018-Apr-24 14:58N 51°57' E 004°08'0 0.0
2018-Apr-24 14:28N 51°57' E 004°08'0 0.0
2018-Apr-24 13:58N 51°57' E 004°08'0 0.0
2018-Apr-24 13:28N 51°57' E 004°08'0 0.0
2018-Apr-24 13:00N 51°57' E 004°08'0 0.0
2018-Apr-24 12:30N 51°57' E 004°08'0 0.0
2018-Apr-24 12:00N 51°57' E 004°08'0 0.0
2018-Apr-24 11:30N 51°57' E 004°08'0 0.0
2018-Apr-24 11:00N 51°57' E 004°08'0 0.0
2018-Apr-24 10:29N 51°57' E 004°08'0 0.0
2018-Apr-24 09:59N 51°57' E 004°08'0 0.0
2018-Apr-24 09:29N 51°57' E 004°08'0 0.0
2018-Apr-24 08:59N 51°57' E 004°08'0 0.0
2018-Apr-24 08:28N 51°57' E 004°08'0 0.0
2018-Apr-24 07:58N 51°57' E 004°08'0 0.0
2018-Apr-24 07:28N 51°57' E 004°08'0 0.0
2018-Apr-24 06:58N 51°57' E 004°08'0 0.0
2018-Apr-24 06:31N 51°57' E 004°08'2 4.9
2018-Apr-24 06:00N 51°59' E 004°05'918.1
2018-Apr-24 05:30N 52°01' E 003°51'1118.0
2018-Apr-24 04:54N 52°06' E 003°35'6418.7
2018-Apr-24 01:29N 52°41' E 002°08'1020.0
2018-Apr-24 01:00N 52°46' E 001°55'1019.7
2018-Apr-24 00:30N 52°52' E 001°41'1019.8
2018-Apr-24 00:00N 52°56' E 001°27'1019.6
2018-Apr-23 23:30N 53°01' E 001°12'4418.5
2018-Apr-23 21:08N 53°31' E 000°18'217.8
2018-Apr-23 21:00N 53°32' E 000°15'815.8
2018-Apr-23 20:30N 53°35' E 000°03'815.4
2018-Apr-23 20:00N 53°38' W 000°09'611.0
2018-Apr-23 19:30N 53°43' W 000°14'2 4.4
2018-Apr-23 18:58N 53°44' W 000°17'0 0.0
2018-Apr-23 18:28N 53°44' W 000°17'0 0.0
2018-Apr-23 18:01N 53°44' W 000°17'0 0.0
2018-Apr-23 17:30N 53°44' W 000°17'0 0.0
2018-Apr-23 17:00N 53°44' W 000°17'0 0.0
2018-Apr-23 16:30N 53°44' W 000°17'0 0.0
2018-Apr-23 16:00N 53°44' W 000°17'0 0.0
2018-Apr-23 15:29N 53°44' W 000°17'0 0.0
2018-Apr-23 14:59N 53°44' W 000°17'0 0.0
2018-Apr-23 14:29N 53°44' W 000°17'0 0.0
2018-Apr-23 13:59N 53°44' W 000°17'0 0.0
2018-Apr-23 13:29N 53°44' W 000°17'0 0.0
2018-Apr-23 12:58N 53°44' W 000°17'0 0.0
2018-Apr-23 12:28N 53°44' W 000°17'0 0.0
2018-Apr-23 11:58N 53°44' W 000°17'0 0.0
2018-Apr-23 11:28N 53°44' W 000°17'0 0.0
2018-Apr-23 11:01N 53°44' W 000°17'0 0.0
2018-Apr-23 10:30N 53°44' W 000°17'0 0.0
2018-Apr-23 10:00N 53°44' W 000°17'0 0.0
2018-Apr-23 09:30N 53°44' W 000°17'0 0.0
2018-Apr-23 09:00N 53°44' W 000°17'0 0.0
2018-Apr-23 08:29N 53°44' W 000°17'0 0.0
2018-Apr-23 07:59N 53°44' W 000°17'0 0.0
2018-Apr-23 07:29N 53°44' W 000°17'0 0.0
2018-Apr-23 06:59N 53°44' W 000°17'0 0.0
2018-Apr-23 06:29N 53°44' W 000°17'0 0.3
2018-Apr-23 06:00N 53°44' W 000°17'4 8.1
2018-Apr-23 05:30N 53°41' W 000°13'5 9.7
2018-Apr-23 05:00N 53°38' W 000°07'714.4
2018-Apr-23 04:30N 53°35' E 000°04'3116.4
2018-Apr-23 02:37N 53°23' E 000°52'218.8
2018-Apr-23 02:30N 53°22' E 000°55'918.2
2018-Apr-23 02:00N 53°17' E 001°07'917.6
2018-Apr-23 01:30N 53°12' E 001°19'917.2
2018-Apr-23 01:00N 53°06' E 001°31'917.2
2018-Apr-23 00:30N 53°01' E 001°42'917.2
2018-Apr-23 00:00N 52°56' E 001°54'917.3
2018-Apr-22 23:30N 52°51' E 002°05'917.8
2018-Apr-22 23:00N 52°44' E 002°15'3819.0
2018-Apr-22 21:02N 52°22' E 003°05'019.8
2018-Apr-22 21:00N 52°22' E 003°05'1019.0
2018-Apr-22 20:29N 52°16' E 003°18'919.1
2018-Apr-22 20:00N 52°10' E 003°30'918.5
2018-Apr-22 19:30N 52°06' E 003°43'917.6
2018-Apr-22 19:00N 52°03' E 003°57'715.1
2018-Apr-22 18:31N 51°58' E 004°06'2 3.6
2018-Apr-22 17:59N 51°57' E 004°08'0 0.0
2018-Apr-22 17:29N 51°57' E 004°08'0 0.0
2018-Apr-22 16:58N 51°57' E 004°08'0 0.0
2018-Apr-22 16:28N 51°57' E 004°08'0 0.0
2018-Apr-22 15:58N 51°57' E 004°08'0 0.0
2018-Apr-22 15:28N 51°57' E 004°08'0 0.0
2018-Apr-22 15:00N 51°57' E 004°08'0 0.0
2018-Apr-22 14:30N 51°57' E 004°08'0 0.0
2018-Apr-22 13:57N 51°57' E 004°08'0 0.0
2018-Apr-22 13:30N 51°57' E 004°08'0 0.0
2018-Apr-22 12:57N 51°57' E 004°08'0 0.0
2018-Apr-22 12:29N 51°57' E 004°08'0 0.0
2018-Apr-22 11:59N 51°57' E 004°08'0 0.0
2018-Apr-22 11:29N 51°57' E 004°08'0 0.0
2018-Apr-22 10:59N 51°57' E 004°08'0 0.0
2018-Apr-22 10:26N 51°57' E 004°08'0 0.0
2018-Apr-22 09:58N 51°57' E 004°08'0 0.0
2018-Apr-22 09:28N 51°57' E 004°08'0 0.0
2018-Apr-22 08:58N 51°57' E 004°08'0 0.0
2018-Apr-22 08:28N 51°57' E 004°08'0 0.0
2018-Apr-22 08:00N 51°57' E 004°08'0 0.0
2018-Apr-22 07:30N 51°57' E 004°08'0 0.0
2018-Apr-22 07:01N 51°57' E 004°08'1 2.2
2018-Apr-22 06:31N 51°58' E 004°08'815.1
2018-Apr-22 06:00N 52°01' E 003°57'917.3
2018-Apr-22 05:30N 52°03' E 003°43'917.1
2018-Apr-22 05:00N 52°07' E 003°31'4616.3
2018-Apr-22 02:09N 52°33' E 002°28'316.3
2018-Apr-22 02:00N 52°35' E 002°24'816.5
2018-Apr-22 01:30N 52°39' E 002°13'817.0
2018-Apr-22 01:00N 52°45' E 002°03'917.3
2018-Apr-22 00:30N 52°50' E 001°51'917.6
2018-Apr-22 00:00N 52°53' E 001°37'918.0
2018-Apr-21 23:30N 52°58' E 001°24'918.7
2018-Apr-21 23:00N 53°01' E 001°10'1317.6
2018-Apr-21 22:17N 53°09' E 000°53'1017.2
2018-Apr-21 21:42N 53°16' E 000°42'316.1
2018-Apr-21 21:30N 53°18' E 000°38'916.4
2018-Apr-21 20:58N 53°25' E 000°28'816.4
2018-Apr-21 20:30N 53°30' E 000°19'816.0
2018-Apr-21 20:00N 53°34' E 000°07'815.2
2018-Apr-21 19:30N 53°37' W 000°05'613.0
2018-Apr-21 19:00N 53°41' W 000°13'4 7.9
2018-Apr-21 18:28N 53°44' W 000°17'0 0.0
2018-Apr-21 17:58N 53°44' W 000°17'0 0.0
2018-Apr-21 17:28N 53°44' W 000°17'0 0.0
2018-Apr-21 16:58N 53°44' W 000°17'0 0.0
2018-Apr-21 16:30N 53°44' W 000°17'0 0.0
2018-Apr-21 16:00N 53°44' W 000°17'0 0.0
2018-Apr-21 15:30N 53°44' W 000°17'0 0.0
2018-Apr-21 15:00N 53°44' W 000°17'0 0.0
2018-Apr-21 14:29N 53°44' W 000°17'0 0.0
2018-Apr-21 13:59N 53°44' W 000°17'0 0.0
2018-Apr-21 13:29N 53°44' W 000°17'0 0.0
2018-Apr-21 12:59N 53°44' W 000°17'0 0.0
2018-Apr-21 12:29N 53°44' W 000°17'0 0.0
2018-Apr-21 11:58N 53°44' W 000°17'0 0.0
2018-Apr-21 11:28N 53°44' W 000°17'0 0.0
2018-Apr-21 10:58N 53°44' W 000°17'0 0.0
2018-Apr-21 10:28N 53°44' W 000°17'0 0.0
2018-Apr-21 09:57N 53°44' W 000°17'0 0.0
2018-Apr-21 09:30N 53°44' W 000°17'0 0.0
2018-Apr-21 09:00N 53°44' W 000°17'0 0.0
2018-Apr-21 08:30N 53°44' W 000°17'0 0.0
2018-Apr-21 08:00N 53°44' W 000°17'0 0.0
2018-Apr-21 07:29N 53°44' W 000°17'0 0.0
2018-Apr-21 07:00N 53°44' W 000°17'3 5.8
2018-Apr-21 06:30N 53°42' W 000°14'713.5
2018-Apr-21 06:00N 53°37' W 000°06'816.9
2018-Apr-21 05:30N 53°34' E 000°07'815.9
2018-Apr-21 05:00N 53°33' E 000°20'1916.2
2018-Apr-21 03:49N 53°24' E 000°48'717.7
2018-Apr-21 03:26N 53°20' E 000°59'717.6
2018-Apr-21 03:00N 53°16' E 001°09'917.3
2018-Apr-21 02:30N 53°11' E 001°20'816.9
2018-Apr-21 02:00N 53°06' E 001°32'816.6
2018-Apr-21 01:30N 53°01' E 001°43'1115.9
2018-Apr-21 00:50N 52°55' E 001°58'515.8
2018-Apr-21 00:30N 52°52' E 002°05'815.8
2018-Apr-21 00:00N 52°46' E 002°13'816.2
2018-Apr-20 23:30N 52°40' E 002°22'816.7
2018-Apr-20 23:00N 52°35' E 002°33'917.3
2018-Apr-20 22:30N 52°30' E 002°45'917.5
2018-Apr-20 22:00N 52°25' E 002°56'917.3
2018-Apr-20 21:30N 52°19' E 003°06'917.2
2018-Apr-20 21:00N 52°14' E 003°17'917.4
2018-Apr-20 20:30N 52°09' E 003°30'917.4
2018-Apr-20 20:00N 52°06' E 003°42'816.8
2018-Apr-20 19:30N 52°02' E 003°55'816.3
2018-Apr-20 19:00N 51°58' E 004°07'2 3.4
2018-Apr-20 18:30N 51°57' E 004°08'0 0.0
2018-Apr-20 17:59N 51°57' E 004°08'0 0.0
2018-Apr-20 17:29N 51°57' E 004°08'0 0.0
2018-Apr-20 16:56N 51°57' E 004°08'0 0.0
2018-Apr-20 16:29N 51°57' E 004°08'0 0.0
2018-Apr-20 15:58N 51°57' E 004°08'0 0.0
2018-Apr-20 15:28N 51°57' E 004°08'0 0.0
2018-Apr-20 14:58N 51°57' E 004°08'0 0.0
2018-Apr-20 14:28N 51°57' E 004°08'0 0.0
2018-Apr-20 13:58N 51°57' E 004°08'0 0.0
2018-Apr-20 13:30N 51°57' E 004°08'0 0.0
2018-Apr-20 12:57N 51°57' E 004°08'0 0.0
2018-Apr-20 12:30N 51°57' E 004°08'0 0.0
2018-Apr-20 12:00N 51°57' E 004°08'0 0.0
2018-Apr-20 11:30N 51°57' E 004°08'0 0.0
2018-Apr-20 10:59N 51°57' E 004°08'0 0.0
2018-Apr-20 10:29N 51°57' E 004°08'0 0.0
2018-Apr-20 09:59N 51°57' E 004°08'0 0.0
2018-Apr-20 09:29N 51°57' E 004°08'0 0.0
2018-Apr-20 08:55N 51°57' E 004°08'0 0.0
2018-Apr-20 08:28N 51°57' E 004°08'0 0.0
2018-Apr-20 07:58N 51°57' E 004°08'0 0.0
2018-Apr-20 07:28N 51°57' E 004°08'0 0.0
2018-Apr-20 06:58N 51°57' E 004°08'0 0.0
2018-Apr-20 06:30N 51°57' E 004°08'2 4.1
2018-Apr-20 06:01N 51°58' E 004°06'918.0
2018-Apr-20 05:31N 52°01' E 003°52'918.9
2018-Apr-20 05:00N 52°04' E 003°38'4517.9
2018-Apr-20 02:30N 52°30' E 002°38'1018.4
2018-Apr-20 01:59N 52°35' E 002°25'918.6
2018-Apr-20 01:30N 52°41' E 002°13'918.5
2018-Apr-20 01:00N 52°45' E 001°60'918.6
2018-Apr-20 00:31N 52°50' E 001°46'918.0
2018-Apr-20 00:01N 52°56' E 001°35'1019.3
2018-Apr-19 23:30N 53°03' E 001°25'1019.2
2018-Apr-19 23:01N 53°11' E 001°16'1019.2
2018-Apr-19 22:30N 53°18' E 001°05'918.6
2018-Apr-19 22:00N 53°23' E 000°52'2118.2
2018-Apr-19 20:51N 53°30' E 000°19'617.7
2018-Apr-19 20:30N 53°33' E 000°09'917.8
2018-Apr-19 20:01N 53°36' W 000°04'815.2
2018-Apr-19 19:30N 53°42' W 000°14'3 6.5
2018-Apr-19 18:59N 53°44' W 000°17'0 0.0
2018-Apr-19 18:29N 53°44' W 000°17'0 0.0
2018-Apr-19 17:59N 53°44' W 000°17'0 0.0
2018-Apr-19 17:29N 53°44' W 000°17'0 0.0
2018-Apr-19 16:59N 53°44' W 000°17'0 0.0
2018-Apr-19 16:28N 53°44' W 000°17'0 0.0
2018-Apr-19 15:58N 53°44' W 000°17'0 0.0
2018-Apr-19 15:28N 53°44' W 000°17'0 0.0
2018-Apr-19 14:58N 53°44' W 000°17'0 0.0
2018-Apr-19 14:31N 53°44' W 000°17'0 0.0
2018-Apr-19 14:00N 53°44' W 000°17'0 0.0
2018-Apr-19 13:30N 53°44' W 000°17'0 0.0
2018-Apr-19 13:00N 53°44' W 000°17'0 0.0
2018-Apr-19 12:30N 53°44' W 000°17'0 0.0
2018-Apr-19 11:59N 53°44' W 000°17'0 0.0
2018-Apr-19 11:29N 53°44' W 000°17'0 0.0
2018-Apr-19 10:59N 53°44' W 000°17'0 0.0
2018-Apr-19 10:29N 53°44' W 000°17'0 0.0
2018-Apr-19 09:59N 53°44' W 000°17'0 0.0
2018-Apr-19 09:28N 53°44' W 000°17'0 0.0
2018-Apr-19 08:58N 53°44' W 000°17'0 0.0
2018-Apr-19 08:28N 53°44' W 000°17'0 0.0
2018-Apr-19 07:58N 53°44' W 000°17'0 0.0
2018-Apr-19 07:30N 53°44' W 000°17'0 0.0
2018-Apr-19 07:00N 53°44' W 000°17'0 0.0
2018-Apr-19 06:30N 53°44' W 000°17'0 0.0
2018-Apr-19 06:00N 53°44' W 000°17'2 3.3
2018-Apr-19 05:30N 53°43' W 000°15'713.6
2018-Apr-19 05:00N 53°38' W 000°08'918.4
2018-Apr-19 04:30N 53°34' E 000°06'1017.3
2018-Apr-19 03:56N 53°33' E 000°23'716.1
2018-Apr-19 03:30N 53°30' E 000°33'918.2
2018-Apr-19 03:00N 53°25' E 000°46'1019.9
2018-Apr-19 02:30N 53°20' E 000°60'1121.2
2018-Apr-19 02:00N 53°11' E 001°10'1121.4
2018-Apr-19 01:30N 53°03' E 001°22'1121.2
2018-Apr-19 01:00N 52°55' E 001°33'1019.6
2018-Apr-19 00:30N 52°50' E 001°47'918.6
2018-Apr-19 00:00N 52°46' E 002°01'918.1
2018-Apr-18 23:30N 52°41' E 002°13'917.7
2018-Apr-18 23:00N 52°36' E 002°25'1118.1
2018-Apr-18 22:26N 52°30' E 002°40'818.4
2018-Apr-18 22:00N 52°26' E 002°51'918.3
2018-Apr-18 21:30N 52°20' E 003°03'918.5
2018-Apr-18 20:59N 52°15' E 003°16'918.3
2018-Apr-18 20:29N 52°10' E 003°28'918.6
2018-Apr-18 20:00N 52°05' E 003°40'1019.0
2018-Apr-18 19:30N 52°02' E 003°55'917.3
2018-Apr-18 19:00N 51°58' E 004°07'1 2.8
2018-Apr-18 18:30N 51°57' E 004°08'0 0.0
2018-Apr-18 18:00N 51°57' E 004°08'0 0.0
2018-Apr-18 17:30N 51°57' E 004°08'0 0.0
2018-Apr-18 16:59N 51°57' E 004°08'0 0.0
2018-Apr-18 16:29N 51°57' E 004°08'0 0.0
2018-Apr-18 15:59N 51°57' E 004°08'0 0.0
2018-Apr-18 15:26N 51°57' E 004°08'0 0.0
2018-Apr-18 14:59N 51°57' E 004°08'0 0.0
2018-Apr-18 14:28N 51°57' E 004°08'0 0.0
2018-Apr-18 13:58N 51°57' E 004°08'0 0.0
2018-Apr-18 13:28N 51°57' E 004°08'0 0.0
2018-Apr-18 12:58N 51°57' E 004°08'0 0.0
2018-Apr-18 12:30N 51°57' E 004°08'0 0.0
2018-Apr-18 11:54N 51°57' E 004°08'0 0.0
2018-Apr-18 11:30N 51°57' E 004°08'0 0.0
2018-Apr-18 11:00N 51°57' E 004°08'0 0.0
2018-Apr-18 10:30N 51°57' E 004°08'0 0.0
2018-Apr-18 09:59N 51°57' E 004°08'0 0.0
2018-Apr-18 09:29N 51°57' E 004°08'0 0.0
2018-Apr-18 08:59N 51°57' E 004°08'0 0.0
2018-Apr-18 08:29N 51°57' E 004°08'0 0.0
2018-Apr-18 07:55N 51°57' E 004°08'0 0.0
2018-Apr-18 07:28N 51°57' E 004°08'0 0.0
2018-Apr-18 06:58N 51°57' E 004°08'0 0.4
2018-Apr-18 06:30N 51°57' E 004°08'3 6.8
2018-Apr-18 06:00N 51°59' E 004°04'917.6
2018-Apr-18 05:30N 52°02' E 003°50'918.0
2018-Apr-18 04:59N 52°05' E 003°36'918.7
2018-Apr-18 04:30N 52°09' E 003°23'918.2
2018-Apr-18 04:00N 52°15' E 003°11'918.2
2018-Apr-18 03:29N 52°22' E 003°00'3617.7
2018-Apr-18 01:26N 52°45' E 002°14'817.5
2018-Apr-18 01:00N 52°50' E 002°05'917.3
2018-Apr-18 00:30N 52°55' E 001°54'917.7
2018-Apr-18 00:00N 53°01' E 001°42'917.5
2018-Apr-17 23:30N 53°06' E 001°31'918.0
2018-Apr-17 23:00N 53°11' E 001°19'918.2
2018-Apr-17 22:30N 53°17' E 001°07'3218.0
2018-Apr-17 20:45N 53°30' E 000°19'417.4
2018-Apr-17 20:30N 53°33' E 000°13'919.1
2018-Apr-17 20:01N 53°36' W 000°02'917.6
2018-Apr-17 19:30N 53°42' W 000°14'3 6.2
2018-Apr-17 18:58N 53°44' W 000°17'0 0.0
2018-Apr-17 18:28N 53°44' W 000°17'0 0.0
2018-Apr-17 17:58N 53°44' W 000°17'0 0.0
2018-Apr-17 17:30N 53°44' W 000°17'0 0.0
2018-Apr-17 17:00N 53°44' W 000°17'0 0.0
2018-Apr-17 16:30N 53°44' W 000°17'0 0.0
2018-Apr-17 16:00N 53°44' W 000°17'0 0.0
2018-Apr-17 15:30N 53°44' W 000°17'0 0.0
2018-Apr-17 14:59N 53°44' W 000°17'0 0.0
2018-Apr-17 14:29N 53°44' W 000°17'0 0.0
2018-Apr-17 13:59N 53°44' W 000°17'0 0.0
2018-Apr-17 13:29N 53°44' W 000°17'0 0.0
2018-Apr-17 12:58N 53°44' W 000°17'0 0.0
2018-Apr-17 12:28N 53°44' W 000°17'0 0.0
2018-Apr-17 11:58N 53°44' W 000°17'0 0.0
2018-Apr-17 11:25N 53°44' W 000°17'0 0.0
2018-Apr-17 10:58N 53°44' W 000°17'0 0.0
2018-Apr-17 10:30N 53°44' W 000°17'0 0.0
2018-Apr-17 10:00N 53°44' W 000°17'0 0.0
2018-Apr-17 09:30N 53°44' W 000°17'0 0.0
2018-Apr-17 08:59N 53°44' W 000°17'0 0.0
2018-Apr-17 08:30N 53°44' W 000°17'0 0.0
2018-Apr-17 08:00N 53°44' W 000°17'0 0.0
2018-Apr-17 07:30N 53°44' W 000°17'0 0.0
2018-Apr-17 07:00N 53°44' W 000°17'0 0.0
2018-Apr-17 06:30N 53°44' W 000°17'0 0.0
2018-Apr-17 06:00N 53°44' W 000°17'1 2.6
2018-Apr-17 05:30N 53°43' W 000°15'817.1
2018-Apr-17 05:01N 53°37' W 000°06'1019.5
2018-Apr-17 04:30N 53°33' E 000°09'2716.4
2018-Apr-17 02:51N 53°23' E 000°51'919.5
2018-Apr-17 02:24N 53°18' E 001°04'820.8
2018-Apr-17 02:00N 53°12' E 001°13'1121.3
2018-Apr-17 01:30N 53°04' E 001°25'1121.5
2018-Apr-17 01:00N 52°56' E 001°37'1121.1
2018-Apr-17 00:30N 52°50' E 001°51'1019.7
2018-Apr-17 00:01N 52°45' E 002°05'3918.4
2018-Apr-16 21:53N 52°23' E 002°57'718.4
2018-Apr-16 21:30N 52°19' E 003°07'918.5
2018-Apr-16 21:00N 52°14' E 003°20'918.4
2018-Apr-16 20:31N 52°09' E 003°32'918.7
2018-Apr-16 20:01N 52°05' E 003°46'918.3
2018-Apr-16 19:31N 52°01' E 003°60'612.9
2018-Apr-16 19:00N 51°57' E 004°08'0 0.9
2018-Apr-16 18:28N 51°57' E 004°08'0 0.0
2018-Apr-16 17:58N 51°57' E 004°08'0 0.0
2018-Apr-16 17:28N 51°57' E 004°08'0 0.0
2018-Apr-16 16:58N 51°57' E 004°08'0 0.0
2018-Apr-16 16:25N 51°57' E 004°08'0 0.0
2018-Apr-16 16:00N 51°57' E 004°08'0 0.0
2018-Apr-16 15:30N 51°57' E 004°08'0 0.0
2018-Apr-16 15:00N 51°57' E 004°08'0 0.0
2018-Apr-16 14:30N 51°57' E 004°08'0 0.0
2018-Apr-16 13:59N 51°57' E 004°08'0 0.0
2018-Apr-16 13:29N 51°57' E 004°08'0 0.0
2018-Apr-16 12:59N 51°57' E 004°08'0 0.0
2018-Apr-16 12:29N 51°57' E 004°08'0 0.0
2018-Apr-16 11:59N 51°57' E 004°08'0 0.0
2018-Apr-16 11:28N 51°57' E 004°08'0 0.0
2018-Apr-16 10:58N 51°57' E 004°08'0 0.0
2018-Apr-16 10:28N 51°57' E 004°08'0 0.0
2018-Apr-16 09:58N 51°57' E 004°08'0 0.0
2018-Apr-16 09:27N 51°57' E 004°08'0 0.0
2018-Apr-16 08:51N 51°57' E 004°08'0 0.0
2018-Apr-16 08:27N 51°57' E 004°08'0 0.0
2018-Apr-16 08:00N 51°57' E 004°08'0 0.0
2018-Apr-16 07:30N 51°57' E 004°08'0 0.0
2018-Apr-16 06:56N 51°57' E 004°08'0 0.0
2018-Apr-16 06:30N 51°57' E 004°08'2 4.4
2018-Apr-16 06:00N 51°58' E 004°06'816.5
2018-Apr-16 05:30N 52°01' E 003°53'917.1
2018-Apr-16 05:00N 52°04' E 003°40'916.9
2018-Apr-16 04:28N 52°08' E 003°27'4916.8
2018-Apr-16 01:33N 52°39' E 002°25'216.5
2018-Apr-16 01:27N 52°40' E 002°23'716.6
2018-Apr-16 01:00N 52°45' E 002°14'816.6
2018-Apr-16 00:30N 52°51' E 002°04'816.6
2018-Apr-16 00:00N 52°56' E 001°53'816.9
2018-Apr-15 23:30N 53°01' E 001°42'917.3
2018-Apr-15 23:00N 53°07' E 001°31'917.5
2018-Apr-15 22:30N 53°12' E 001°19'4017.7
2018-Apr-15 20:14N 53°30' E 000°19'416.8
2018-Apr-15 20:01N 53°32' E 000°14'1020.5
2018-Apr-15 19:31N 53°36' W 000°02'918.5
2018-Apr-15 19:01N 53°42' W 000°14'3 5.7
2018-Apr-15 18:28N 53°44' W 000°17'0 0.0
2018-Apr-15 17:58N 53°44' W 000°17'0 0.0
2018-Apr-15 17:28N 53°44' W 000°17'0 0.0
2018-Apr-15 17:00N 53°44' W 000°17'0 0.0
2018-Apr-15 16:30N 53°44' W 000°17'0 0.0
2018-Apr-15 16:00N 53°44' W 000°17'0 0.0
2018-Apr-15 15:30N 53°44' W 000°17'0 0.0
2018-Apr-15 15:00N 53°44' W 000°17'0 0.0
2018-Apr-15 14:29N 53°44' W 000°17'0 0.0
2018-Apr-15 13:59N 53°44' W 000°17'0 0.0
2018-Apr-15 13:29N 53°44' W 000°17'0 0.0
2018-Apr-15 12:59N 53°44' W 000°17'0 0.0
2018-Apr-15 12:28N 53°44' W 000°17'0 0.0
2018-Apr-15 11:58N 53°44' W 000°17'0 0.0
2018-Apr-15 11:28N 53°44' W 000°17'0 0.0
2018-Apr-15 10:58N 53°44' W 000°17'0 0.0
2018-Apr-15 10:28N 53°44' W 000°17'0 0.0
2018-Apr-15 10:00N 53°44' W 000°17'0 0.0
2018-Apr-15 09:30N 53°44' W 000°17'0 0.0
2018-Apr-15 09:00N 53°44' W 000°17'0 0.0
2018-Apr-15 08:30N 53°44' W 000°17'0 0.0
2018-Apr-15 08:00N 53°44' W 000°17'0 0.0
2018-Apr-15 07:29N 53°44' W 000°17'0 0.0
2018-Apr-15 06:59N 53°44' W 000°17'0 0.0
2018-Apr-15 06:29N 53°44' W 000°17'0 0.6
2018-Apr-15 06:01N 53°44' W 000°16'612.7
2018-Apr-15 05:31N 53°39' W 000°11'816.7
2018-Apr-15 05:01N 53°35' E 000°02'815.9
2018-Apr-15 04:30N 53°33' E 000°15'714.9
2018-Apr-15 04:01N 53°29' E 000°26'1115.0
2018-Apr-15 03:16N 53°25' E 000°43'415.6
2018-Apr-15 03:00N 53°23' E 000°50'816.3
2018-Apr-15 02:30N 53°20' E 001°02'  
Track history (hours):
 
Tides and Currents Weather Stations Pressure Air Temp Water Temp Dewpoint Dewpoint Depression Visibility Wind Speed Wind Dir Waves Ship Positions

Pride Of Rotterdam

Operator: P&O Ferries

Last reported at 2018-Apr-25 02:17 UTC. Time now 2018-Apr-25 02:40 UTC.
Position N 53°21' E 000°57'.

Length 215 m; draft 6 m.

Type: Ship. MMSI: 244980000.

Date/timePositionNaut miles runAvg speedWind from/ knotsBaromVisibWave heightAir tempDewpointWater temp
2018-Apr-25 02:17N 53°21' E 000°57'518.2
2018-Apr-25 02:00N 53°18' E 001°03'918.4
2018-Apr-25 01:30N 53°13' E 001°15'918.7
2018-Apr-25 01:00N 53°08' E 001°29'1019.2
2018-Apr-25 00:30N 53°02' E 001°42'1019.7
2018-Apr-25 00:00N 52°56' E 001°55'1121.1
2018-Apr-24 23:28N 52°48' E 002°08'6220.6
2018-Apr-24 20:26N 52°10' E 003°29'819.4
2018-Apr-24 20:00N 52°06' E 003°41'1019.3
2018-Apr-24 19:30N 52°02' E 003°56'816.8
2018-Apr-24 19:00N 51°58' E 004°07'1 2.9
2018-Apr-24 18:30N 51°57' E 004°08'0 0.0
2018-Apr-24 18:00N 51°57' E 004°08'0 0.0
2018-Apr-24 17:26N 51°57' E 004°08'0 0.0
2018-Apr-24 16:59N 51°57' E 004°08'0 0.0
2018-Apr-24 16:29N 51°57' E 004°08'0 0.0
2018-Apr-24 15:59N 51°57' E 004°08'0 0.0
2018-Apr-24 15:29N 51°57' E 004°08'0 0.0
2018-Apr-24 14:58N 51°57' E 004°08'0 0.0
2018-Apr-24 14:28N 51°57' E 004°08'0 0.0
2018-Apr-24 13:58N 51°57' E 004°08'0 0.0
2018-Apr-24 13:28N 51°57' E 004°08'0 0.0
2018-Apr-24 13:00N 51°57' E 004°08'0 0.0
2018-Apr-24 12:30N 51°57' E 004°08'0 0.0
2018-Apr-24 12:00N 51°57' E 004°08'0 0.0
2018-Apr-24 11:30N 51°57' E 004°08'0 0.0
2018-Apr-24 11:00N 51°57' E 004°08'0 0.0
2018-Apr-24 10:29N 51°57' E 004°08'0 0.0
2018-Apr-24 09:59N 51°57' E 004°08'0 0.0
2018-Apr-24 09:29N 51°57' E 004°08'0 0.0
2018-Apr-24 08:59N 51°57' E 004°08'0 0.0
2018-Apr-24 08:28N 51°57' E 004°08'0 0.0
2018-Apr-24 07:58N 51°57' E 004°08'0 0.0
2018-Apr-24 07:28N 51°57' E 004°08'0 0.0
2018-Apr-24 06:58N 51°57' E 004°08'0 0.0
2018-Apr-24 06:31N 51°57' E 004°08'2 4.9
2018-Apr-24 06:00N 51°59' E 004°05'918.1
2018-Apr-24 05:30N 52°01' E 003°51'1118.0
2018-Apr-24 04:54N 52°06' E 003°35'6418.7
2018-Apr-24 01:29N 52°41' E 002°08'1020.0
2018-Apr-24 01:00N 52°46' E 001°55'1019.7
2018-Apr-24 00:30N 52°52' E 001°41'1019.8
2018-Apr-24 00:00N 52°56' E 001°27'1019.6
2018-Apr-23 23:30N 53°01' E 001°12'4418.5
2018-Apr-23 21:08N 53°31' E 000°18'217.8
2018-Apr-23 21:00N 53°32' E 000°15'815.8
2018-Apr-23 20:30N 53°35' E 000°03'815.4
2018-Apr-23 20:00N 53°38' W 000°09'611.0
2018-Apr-23 19:30N 53°43' W 000°14'2 4.4
2018-Apr-23 18:58N 53°44' W 000°17'0 0.0
2018-Apr-23 18:28N 53°44' W 000°17'0 0.0
2018-Apr-23 18:01N 53°44' W 000°17'0 0.0
2018-Apr-23 17:30N 53°44' W 000°17'0 0.0
2018-Apr-23 17:00N 53°44' W 000°17'0 0.0
2018-Apr-23 16:30N 53°44' W 000°17'0 0.0
2018-Apr-23 16:00N 53°44' W 000°17'0 0.0
2018-Apr-23 15:29N 53°44' W 000°17'0 0.0
2018-Apr-23 14:59N 53°44' W 000°17'0 0.0
2018-Apr-23 14:29N 53°44' W 000°17'0 0.0
2018-Apr-23 13:59N 53°44' W 000°17'0 0.0
2018-Apr-23 13:29N 53°44' W 000°17'0 0.0
2018-Apr-23 12:58N 53°44' W 000°17'0 0.0
2018-Apr-23 12:28N 53°44' W 000°17'0 0.0
2018-Apr-23 11:58N 53°44' W 000°17'0 0.0
2018-Apr-23 11:28N 53°44' W 000°17'0 0.0
2018-Apr-23 11:01N 53°44' W 000°17'0 0.0
2018-Apr-23 10:30N 53°44' W 000°17'0 0.0
2018-Apr-23 10:00N 53°44' W 000°17'0 0.0
2018-Apr-23 09:30N 53°44' W 000°17'0 0.0
2018-Apr-23 09:00N 53°44' W 000°17'0 0.0
2018-Apr-23 08:29N 53°44' W 000°17'0 0.0
2018-Apr-23 07:59N 53°44' W 000°17'0 0.0
2018-Apr-23 07:29N 53°44' W 000°17'0 0.0
2018-Apr-23 06:59N 53°44' W 000°17'0 0.0
2018-Apr-23 06:29N 53°44' W 000°17'0 0.3
2018-Apr-23 06:00N 53°44' W 000°17'4 8.1
2018-Apr-23 05:30N 53°41' W 000°13'5 9.7
2018-Apr-23 05:00N 53°38' W 000°07'714.4
2018-Apr-23 04:30N 53°35' E 000°04'3116.4
2018-Apr-23 02:37N 53°23' E 000°52'218.8
2018-Apr-23 02:30N 53°22' E 000°55'918.2
2018-Apr-23 02:00N 53°17' E 001°07'917.6
2018-Apr-23 01:30N 53°12' E 001°19'917.2
2018-Apr-23 01:00N 53°06' E 001°31'917.2
2018-Apr-23 00:30N 53°01' E 001°42'917.2
2018-Apr-23 00:00N 52°56' E 001°54'917.3
2018-Apr-22 23:30N 52°51' E 002°05'917.8
2018-Apr-22 23:00N 52°44' E 002°15'3819.0
2018-Apr-22 21:02N 52°22' E 003°05'019.8
2018-Apr-22 21:00N 52°22' E 003°05'1019.0
2018-Apr-22 20:29N 52°16' E 003°18'919.1
2018-Apr-22 20:00N 52°10' E 003°30'918.5
2018-Apr-22 19:30N 52°06' E 003°43'917.6
2018-Apr-22 19:00N 52°03' E 003°57'715.1
2018-Apr-22 18:31N 51°58' E 004°06'2 3.6
2018-Apr-22 17:59N 51°57' E 004°08'0 0.0
2018-Apr-22 17:29N 51°57' E 004°08'0 0.0
2018-Apr-22 16:58N 51°57' E 004°08'0 0.0
2018-Apr-22 16:28N 51°57' E 004°08'0 0.0
2018-Apr-22 15:58N 51°57' E 004°08'0 0.0
2018-Apr-22 15:28N 51°57' E 004°08'0 0.0
2018-Apr-22 15:00N 51°57' E 004°08'0 0.0
2018-Apr-22 14:30N 51°57' E 004°08'0 0.0
2018-Apr-22 13:57N 51°57' E 004°08'0 0.0
2018-Apr-22 13:30N 51°57' E 004°08'0 0.0
2018-Apr-22 12:57N 51°57' E 004°08'0 0.0
2018-Apr-22 12:29N 51°57' E 004°08'0 0.0
2018-Apr-22 11:59N 51°57' E 004°08'0 0.0
2018-Apr-22 11:29N 51°57' E 004°08'0 0.0
2018-Apr-22 10:59N 51°57' E 004°08'0 0.0
2018-Apr-22 10:26N 51°57' E 004°08'0 0.0
2018-Apr-22 09:58N 51°57' E 004°08'0 0.0
2018-Apr-22 09:28N 51°57' E 004°08'0 0.0
2018-Apr-22 08:58N 51°57' E 004°08'0 0.0
2018-Apr-22 08:28N 51°57' E 004°08'0 0.0
2018-Apr-22 08:00N 51°57' E 004°08'0 0.0
2018-Apr-22 07:30N 51°57' E 004°08'0 0.0
2018-Apr-22 07:01N 51°57' E 004°08'1 2.2
2018-Apr-22 06:31N 51°58' E 004°08'815.1
2018-Apr-22 06:00N 52°01' E 003°57'917.3
2018-Apr-22 05:30N 52°03' E 003°43'917.1
2018-Apr-22 05:00N 52°07' E 003°31'4616.3
2018-Apr-22 02:09N 52°33' E 002°28'316.3
2018-Apr-22 02:00N 52°35' E 002°24'816.5
2018-Apr-22 01:30N 52°39' E 002°13'817.0
2018-Apr-22 01:00N 52°45' E 002°03'917.3
2018-Apr-22 00:30N 52°50' E 001°51'917.6
2018-Apr-22 00:00N 52°53' E 001°37'918.0
2018-Apr-21 23:30N 52°58' E 001°24'918.7
2018-Apr-21 23:00N 53°01' E 001°10'1317.6
2018-Apr-21 22:17N 53°09' E 000°53'1017.2
2018-Apr-21 21:42N 53°16' E 000°42'316.1
2018-Apr-21 21:30N 53°18' E 000°38'916.4
2018-Apr-21 20:58N 53°25' E 000°28'816.4
2018-Apr-21 20:30N 53°30' E 000°19'816.0
2018-Apr-21 20:00N 53°34' E 000°07'815.2
2018-Apr-21 19:30N 53°37' W 000°05'613.0
2018-Apr-21 19:00N 53°41' W 000°13'4 7.9
2018-Apr-21 18:28N 53°44' W 000°17'0 0.0
2018-Apr-21 17:58N 53°44' W 000°17'0 0.0
2018-Apr-21 17:28N 53°44' W 000°17'0 0.0
2018-Apr-21 16:58N 53°44' W 000°17'0 0.0
2018-Apr-21 16:30N 53°44' W 000°17'0 0.0
2018-Apr-21 16:00N 53°44' W 000°17'0 0.0
2018-Apr-21 15:30N 53°44' W 000°17'0 0.0
2018-Apr-21 15:00N 53°44' W 000°17'0 0.0
2018-Apr-21 14:29N 53°44' W 000°17'0 0.0
2018-Apr-21 13:59N 53°44' W 000°17'0 0.0
2018-Apr-21 13:29N 53°44' W 000°17'0 0.0
2018-Apr-21 12:59N 53°44' W 000°17'0 0.0
2018-Apr-21 12:29N 53°44' W 000°17'0 0.0
2018-Apr-21 11:58N 53°44' W 000°17'0 0.0
2018-Apr-21 11:28N 53°44' W 000°17'0 0.0
2018-Apr-21 10:58N 53°44' W 000°17'0 0.0
2018-Apr-21 10:28N 53°44' W 000°17'0 0.0
2018-Apr-21 09:57N 53°44' W 000°17'0 0.0
2018-Apr-21 09:30N 53°44' W 000°17'0 0.0
2018-Apr-21 09:00N 53°44' W 000°17'0 0.0
2018-Apr-21 08:30N 53°44' W 000°17'0 0.0
2018-Apr-21 08:00N 53°44' W 000°17'0 0.0
2018-Apr-21 07:29N 53°44' W 000°17'0 0.0
2018-Apr-21 07:00N 53°44' W 000°17'3 5.8
2018-Apr-21 06:30N 53°42' W 000°14'713.5
2018-Apr-21 06:00N 53°37' W 000°06'816.9
2018-Apr-21 05:30N 53°34' E 000°07'815.9
2018-Apr-21 05:00N 53°33' E 000°20'1916.2
2018-Apr-21 03:49N 53°24' E 000°48'717.7
2018-Apr-21 03:26N 53°20' E 000°59'717.6
2018-Apr-21 03:00N 53°16' E 001°09'917.3
2018-Apr-21 02:30N 53°11' E 001°20'816.9
2018-Apr-21 02:00N 53°06' E 001°32'816.6
2018-Apr-21 01:30N 53°01' E 001°43'1115.9
2018-Apr-21 00:50N 52°55' E 001°58'515.8
2018-Apr-21 00:30N 52°52' E 002°05'815.8
2018-Apr-21 00:00N 52°46' E 002°13'816.2
2018-Apr-20 23:30N 52°40' E 002°22'816.7
2018-Apr-20 23:00N 52°35' E 002°33'917.3
2018-Apr-20 22:30N 52°30' E 002°45'917.5
2018-Apr-20 22:00N 52°25' E 002°56'917.3
2018-Apr-20 21:30N 52°19' E 003°06'917.2
2018-Apr-20 21:00N 52°14' E 003°17'917.4
2018-Apr-20 20:30N 52°09' E 003°30'917.4
2018-Apr-20 20:00N 52°06' E 003°42'816.8
2018-Apr-20 19:30N 52°02' E 003°55'816.3
2018-Apr-20 19:00N 51°58' E 004°07'2 3.4
2018-Apr-20 18:30N 51°57' E 004°08'0 0.0
2018-Apr-20 17:59N 51°57' E 004°08'0 0.0
2018-Apr-20 17:29N 51°57' E 004°08'0 0.0
2018-Apr-20 16:56N 51°57' E 004°08'0 0.0
2018-Apr-20 16:29N 51°57' E 004°08'0 0.0
2018-Apr-20 15:58N 51°57' E 004°08'0 0.0
2018-Apr-20 15:28N 51°57' E 004°08'0 0.0
2018-Apr-20 14:58N 51°57' E 004°08'0 0.0
2018-Apr-20 14:28N 51°57' E 004°08'0 0.0
2018-Apr-20 13:58N 51°57' E 004°08'0 0.0
2018-Apr-20 13:30N 51°57' E 004°08'0 0.0
2018-Apr-20 12:57N 51°57' E 004°08'0 0.0
2018-Apr-20 12:30N 51°57' E 004°08'0 0.0
2018-Apr-20 12:00N 51°57' E 004°08'0 0.0
2018-Apr-20 11:30N 51°57' E 004°08'0 0.0
2018-Apr-20 10:59N 51°57' E 004°08'0 0.0
2018-Apr-20 10:29N 51°57' E 004°08'0 0.0
2018-Apr-20 09:59N 51°57' E 004°08'0 0.0
2018-Apr-20 09:29N 51°57' E 004°08'0 0.0
2018-Apr-20 08:55N 51°57' E 004°08'0 0.0
2018-Apr-20 08:28N 51°57' E 004°08'0 0.0
2018-Apr-20 07:58N 51°57' E 004°08'0 0.0
2018-Apr-20 07:28N 51°57' E 004°08'0 0.0
2018-Apr-20 06:58N 51°57' E 004°08'0 0.0
2018-Apr-20 06:30N 51°57' E 004°08'2 4.1
2018-Apr-20 06:01N 51°58' E 004°06'918.0
2018-Apr-20 05:31N 52°01' E 003°52'918.9
2018-Apr-20 05:00N 52°04' E 003°38'4517.9
2018-Apr-20 02:30N 52°30' E 002°38'1018.4
2018-Apr-20 01:59N 52°35' E 002°25'918.6
2018-Apr-20 01:30N 52°41' E 002°13'918.5
2018-Apr-20 01:00N 52°45' E 001°60'918.6
2018-Apr-20 00:31N 52°50' E 001°46'918.0
2018-Apr-20 00:01N 52°56' E 001°35'1019.3
2018-Apr-19 23:30N 53°03' E 001°25'1019.2
2018-Apr-19 23:01N 53°11' E 001°16'1019.2
2018-Apr-19 22:30N 53°18' E 001°05'918.6
2018-Apr-19 22:00N 53°23' E 000°52'2118.2
2018-Apr-19 20:51N 53°30' E 000°19'617.7
2018-Apr-19 20:30N 53°33' E 000°09'917.8
2018-Apr-19 20:01N 53°36' W 000°04'815.2
2018-Apr-19 19:30N 53°42' W 000°14'3 6.5
2018-Apr-19 18:59N 53°44' W 000°17'0 0.0
2018-Apr-19 18:29N 53°44' W 000°17'0 0.0
2018-Apr-19 17:59N 53°44' W 000°17'0 0.0
2018-Apr-19 17:29N 53°44' W 000°17'0 0.0
2018-Apr-19 16:59N 53°44' W 000°17'0 0.0
2018-Apr-19 16:28N 53°44' W 000°17'0 0.0
2018-Apr-19 15:58N 53°44' W 000°17'0 0.0
2018-Apr-19 15:28N 53°44' W 000°17'0 0.0
2018-Apr-19 14:58N 53°44' W 000°17'0 0.0
2018-Apr-19 14:31N 53°44' W 000°17'0 0.0
2018-Apr-19 14:00N 53°44' W 000°17'0 0.0
2018-Apr-19 13:30N 53°44' W 000°17'0 0.0
2018-Apr-19 13:00N 53°44' W 000°17'0 0.0
2018-Apr-19 12:30N 53°44' W 000°17'0 0.0
2018-Apr-19 11:59N 53°44' W 000°17'0 0.0
2018-Apr-19 11:29N 53°44' W 000°17'0 0.0
2018-Apr-19 10:59N 53°44' W 000°17'0 0.0
2018-Apr-19 10:29N 53°44' W 000°17'0 0.0
2018-Apr-19 09:59N 53°44' W 000°17'0 0.0
2018-Apr-19 09:28N 53°44' W 000°17'0 0.0
2018-Apr-19 08:58N 53°44' W 000°17'0 0.0
2018-Apr-19 08:28N 53°44' W 000°17'0 0.0
2018-Apr-19 07:58N 53°44' W 000°17'0 0.0
2018-Apr-19 07:30N 53°44' W 000°17'0 0.0
2018-Apr-19 07:00N 53°44' W 000°17'0 0.0
2018-Apr-19 06:30N 53°44' W 000°17'0 0.0
2018-Apr-19 06:00N 53°44' W 000°17'2 3.3
2018-Apr-19 05:30N 53°43' W 000°15'713.6
2018-Apr-19 05:00N 53°38' W 000°08'918.4
2018-Apr-19 04:30N 53°34' E 000°06'1017.3
2018-Apr-19 03:56N 53°33' E 000°23'716.1
2018-Apr-19 03:30N 53°30' E 000°33'918.2
2018-Apr-19 03:00N 53°25' E 000°46'1019.9
2018-Apr-19 02:30N 53°20' E 000°60'1121.2
2018-Apr-19 02:00N 53°11' E 001°10'1121.4
2018-Apr-19 01:30N 53°03' E 001°22'1121.2
2018-Apr-19 01:00N 52°55' E 001°33'1019.6
2018-Apr-19 00:30N 52°50' E 001°47'918.6
2018-Apr-19 00:00N 52°46' E 002°01'918.1
2018-Apr-18 23:30N 52°41' E 002°13'917.7
2018-Apr-18 23:00N 52°36' E 002°25'1118.1
2018-Apr-18 22:26N 52°30' E 002°40'818.4
2018-Apr-18 22:00N 52°26' E 002°51'918.3
2018-Apr-18 21:30N 52°20' E 003°03'918.5
2018-Apr-18 20:59N 52°15' E 003°16'918.3
2018-Apr-18 20:29N 52°10' E 003°28'918.6
2018-Apr-18 20:00N 52°05' E 003°40'1019.0
2018-Apr-18 19:30N 52°02' E 003°55'917.3
2018-Apr-18 19:00N 51°58' E 004°07'1 2.8
2018-Apr-18 18:30N 51°57' E 004°08'0 0.0
2018-Apr-18 18:00N 51°57' E 004°08'0 0.0
2018-Apr-18 17:30N 51°57' E 004°08'0 0.0
2018-Apr-18 16:59N 51°57' E 004°08'0 0.0
2018-Apr-18 16:29N 51°57' E 004°08'0 0.0
2018-Apr-18 15:59N 51°57' E 004°08'0 0.0
2018-Apr-18 15:26N 51°57' E 004°08'0 0.0
2018-Apr-18 14:59N 51°57' E 004°08'0 0.0
2018-Apr-18 14:28N 51°57' E 004°08'0 0.0
2018-Apr-18 13:58N 51°57' E 004°08'0 0.0
2018-Apr-18 13:28N 51°57' E 004°08'0 0.0
2018-Apr-18 12:58N 51°57' E 004°08'0 0.0
2018-Apr-18 12:30N 51°57' E 004°08'0 0.0
2018-Apr-18 11:54N 51°57' E 004°08'0 0.0
2018-Apr-18 11:30N 51°57' E 004°08'0 0.0
2018-Apr-18 11:00N 51°57' E 004°08'0 0.0
2018-Apr-18 10:30N 51°57' E 004°08'0 0.0
2018-Apr-18 09:59N 51°57' E 004°08'0 0.0
2018-Apr-18 09:29N 51°57' E 004°08'0 0.0
2018-Apr-18 08:59N 51°57' E 004°08'0 0.0
2018-Apr-18 08:29N 51°57' E 004°08'0 0.0
2018-Apr-18 07:55N 51°57' E 004°08'0 0.0
2018-Apr-18 07:28N 51°57' E 004°08'0 0.0
2018-Apr-18 06:58N 51°57' E 004°08'0 0.4
2018-Apr-18 06:30N 51°57' E 004°08'3 6.8
2018-Apr-18 06:00N 51°59' E 004°04'917.6
2018-Apr-18 05:30N 52°02' E 003°50'918.0
2018-Apr-18 04:59N 52°05' E 003°36'918.7
2018-Apr-18 04:30N 52°09' E 003°23'918.2
2018-Apr-18 04:00N 52°15' E 003°11'918.2
2018-Apr-18 03:29N 52°22' E 003°00'3617.7
2018-Apr-18 01:26N 52°45' E 002°14'817.5
2018-Apr-18 01:00N 52°50' E 002°05'917.3
2018-Apr-18 00:30N 52°55' E 001°54'917.7
2018-Apr-18 00:00N 53°01' E 001°42'917.5
2018-Apr-17 23:30N 53°06' E 001°31'918.0
2018-Apr-17 23:00N 53°11' E 001°19'918.2
2018-Apr-17 22:30N 53°17' E 001°07'3218.0
2018-Apr-17 20:45N 53°30' E 000°19'417.4
2018-Apr-17 20:30N 53°33' E 000°13'919.1
2018-Apr-17 20:01N 53°36' W 000°02'917.6
2018-Apr-17 19:30N 53°42' W 000°14'3 6.2
2018-Apr-17 18:58N 53°44' W 000°17'0 0.0
2018-Apr-17 18:28N 53°44' W 000°17'0 0.0
2018-Apr-17 17:58N 53°44' W 000°17'0 0.0
2018-Apr-17 17:30N 53°44' W 000°17'0 0.0
2018-Apr-17 17:00N 53°44' W 000°17'0 0.0
2018-Apr-17 16:30N 53°44' W 000°17'0 0.0
2018-Apr-17 16:00N 53°44' W 000°17'0 0.0
2018-Apr-17 15:30N 53°44' W 000°17'0 0.0
2018-Apr-17 14:59N 53°44' W 000°17'0 0.0
2018-Apr-17 14:29N 53°44' W 000°17'0 0.0
2018-Apr-17 13:59N 53°44' W 000°17'0 0.0
2018-Apr-17 13:29N 53°44' W 000°17'0 0.0
2018-Apr-17 12:58N 53°44' W 000°17'0 0.0
2018-Apr-17 12:28N 53°44' W 000°17'0 0.0
2018-Apr-17 11:58N 53°44' W 000°17'0 0.0
2018-Apr-17 11:25N 53°44' W 000°17'0 0.0
2018-Apr-17 10:58N 53°44' W 000°17'0 0.0
2018-Apr-17 10:30N 53°44' W 000°17'0 0.0
2018-Apr-17 10:00N 53°44' W 000°17'0 0.0
2018-Apr-17 09:30N 53°44' W 000°17'0 0.0
2018-Apr-17 08:59N 53°44' W 000°17'0 0.0
2018-Apr-17 08:30N 53°44' W 000°17'0 0.0
2018-Apr-17 08:00N 53°44' W 000°17'0 0.0
2018-Apr-17 07:30N 53°44' W 000°17'0 0.0
2018-Apr-17 07:00N 53°44' W 000°17'0 0.0
2018-Apr-17 06:30N 53°44' W 000°17'0 0.0
2018-Apr-17 06:00N 53°44' W 000°17'1 2.6
2018-Apr-17 05:30N 53°43' W 000°15'817.1
2018-Apr-17 05:01N 53°37' W 000°06'1019.5
2018-Apr-17 04:30N 53°33' E 000°09'2716.4
2018-Apr-17 02:51N 53°23' E 000°51'919.5
2018-Apr-17 02:24N 53°18' E 001°04'820.8
2018-Apr-17 02:00N 53°12' E 001°13'1121.3
2018-Apr-17 01:30N 53°04' E 001°25'1121.5
2018-Apr-17 01:00N 52°56' E 001°37'1121.1
2018-Apr-17 00:30N 52°50' E 001°51'1019.7
2018-Apr-17 00:01N 52°45' E 002°05'3918.4
2018-Apr-16 21:53N 52°23' E 002°57'718.4
2018-Apr-16 21:30N 52°19' E 003°07'918.5
2018-Apr-16 21:00N 52°14' E 003°20'918.4
2018-Apr-16 20:31N 52°09' E 003°32'918.7
2018-Apr-16 20:01N 52°05' E 003°46'918.3
2018-Apr-16 19:31N 52°01' E 003°60'612.9
2018-Apr-16 19:00N 51°57' E 004°08'0 0.9
2018-Apr-16 18:28N 51°57' E 004°08'0 0.0
2018-Apr-16 17:58N 51°57' E 004°08'0 0.0
2018-Apr-16 17:28N 51°57' E 004°08'0 0.0
2018-Apr-16 16:58N 51°57' E 004°08'0 0.0
2018-Apr-16 16:25N 51°57' E 004°08'0 0.0
2018-Apr-16 16:00N 51°57' E 004°08'0 0.0
2018-Apr-16 15:30N 51°57' E 004°08'0 0.0
2018-Apr-16 15:00N 51°57' E 004°08'0 0.0
2018-Apr-16 14:30N 51°57' E 004°08'0 0.0
2018-Apr-16 13:59N 51°57' E 004°08'0 0.0
2018-Apr-16 13:29N 51°57' E 004°08'0 0.0
2018-Apr-16 12:59N 51°57' E 004°08'0 0.0
2018-Apr-16 12:29N 51°57' E 004°08'0 0.0
2018-Apr-16 11:59N 51°57' E 004°08'0 0.0
2018-Apr-16 11:28N 51°57' E 004°08'0 0.0
2018-Apr-16 10:58N 51°57' E 004°08'0 0.0
2018-Apr-16 10:28N 51°57' E 004°08'0 0.0
2018-Apr-16 09:58N 51°57' E 004°08'0 0.0
2018-Apr-16 09:27N 51°57' E 004°08'0 0.0
2018-Apr-16 08:51N 51°57' E 004°08'0 0.0
2018-Apr-16 08:27N 51°57' E 004°08'0 0.0
2018-Apr-16 08:00N 51°57' E 004°08'0 0.0
2018-Apr-16 07:30N 51°57' E 004°08'0 0.0
2018-Apr-16 06:56N 51°57' E 004°08'0 0.0
2018-Apr-16 06:30N 51°57' E 004°08'2 4.4
2018-Apr-16 06:00N 51°58' E 004°06'816.5
2018-Apr-16 05:30N 52°01' E 003°53'917.1
2018-Apr-16 05:00N 52°04' E 003°40'916.9
2018-Apr-16 04:28N 52°08' E 003°27'4916.8
2018-Apr-16 01:33N 52°39' E 002°25'216.5
2018-Apr-16 01:27N 52°40' E 002°23'716.6
2018-Apr-16 01:00N 52°45' E 002°14'816.6
2018-Apr-16 00:30N 52°51' E 002°04'816.6
2018-Apr-16 00:00N 52°56' E 001°53'816.9
2018-Apr-15 23:30N 53°01' E 001°42'917.3
2018-Apr-15 23:00N 53°07' E 001°31'917.5
2018-Apr-15 22:30N 53°12' E 001°19'4017.7
2018-Apr-15 20:14N 53°30' E 000°19'416.8
2018-Apr-15 20:01N 53°32' E 000°14'1020.5
2018-Apr-15 19:31N 53°36' W 000°02'918.5
2018-Apr-15 19:01N 53°42' W 000°14'3 5.7
2018-Apr-15 18:28N 53°44' W 000°17'0 0.0
2018-Apr-15 17:58N 53°44' W 000°17'0 0.0
2018-Apr-15 17:28N 53°44' W 000°17'0 0.0
2018-Apr-15 17:00N 53°44' W 000°17'0 0.0
2018-Apr-15 16:30N 53°44' W 000°17'0 0.0
2018-Apr-15 16:00N 53°44' W 000°17'0 0.0
2018-Apr-15 15:30N 53°44' W 000°17'0 0.0
2018-Apr-15 15:00N 53°44' W 000°17'0 0.0
2018-Apr-15 14:29N 53°44' W 000°17'0 0.0
2018-Apr-15 13:59N 53°44' W 000°17'0 0.0
2018-Apr-15 13:29N 53°44' W 000°17'0 0.0
2018-Apr-15 12:59N 53°44' W 000°17'0 0.0
2018-Apr-15 12:28N 53°44' W 000°17'0 0.0
2018-Apr-15 11:58N 53°44' W 000°17'0 0.0
2018-Apr-15 11:28N 53°44' W 000°17'0 0.0
2018-Apr-15 10:58N 53°44' W 000°17'0 0.0
2018-Apr-15 10:28N 53°44' W 000°17'0 0.0
2018-Apr-15 10:00N 53°44' W 000°17'0 0.0
2018-Apr-15 09:30N 53°44' W 000°17'0 0.0
2018-Apr-15 09:00N 53°44' W 000°17'0 0.0
2018-Apr-15 08:30N 53°44' W 000°17'0 0.0
2018-Apr-15 08:00N 53°44' W 000°17'0 0.0
2018-Apr-15 07:29N 53°44' W 000°17'0 0.0
2018-Apr-15 06:59N 53°44' W 000°17'0 0.0
2018-Apr-15 06:29N 53°44' W 000°17'0 0.6
2018-Apr-15 06:01N 53°44' W 000°16'612.7
2018-Apr-15 05:31N 53°39' W 000°11'816.7
2018-Apr-15 05:01N 53°35' E 000°02'815.9
2018-Apr-15 04:30N 53°33' E 000°15'714.9
2018-Apr-15 04:01N 53°29' E 000°26'1115.0
2018-Apr-15 03:16N 53°25' E 000°43'415.6
2018-Apr-15 03:00N 53°23' E 000°50'816.3
2018-Apr-15 02:30N 53°20' E 001°02'  

Dump ship's entire track history